sensor_id;sensor_type;location;lat;lon;timestamp;temperature;humidity
11824;DHT22;5969;50.780;7.726;2022-07-29T00:01:21;16.50;99.90
11824;DHT22;5969;50.780;7.726;2022-07-29T00:03:48;16.40;99.90
11824;DHT22;5969;50.780;7.726;2022-07-29T00:06:16;16.40;99.90
11824;DHT22;5969;50.780;7.726;2022-07-29T00:08:43;16.30;99.90
11824;DHT22;5969;50.780;7.726;2022-07-29T00:11:10;16.30;99.90
11824;DHT22;5969;50.780;7.726;2022-07-29T00:13:36;16.30;99.90
11824;DHT22;5969;50.780;7.726;2022-07-29T00:16:04;16.30;99.90
11824;DHT22;5969;50.780;7.726;2022-07-29T00:18:30;16.40;99.90
11824;DHT22;5969;50.780;7.726;2022-07-29T00:20:57;16.40;99.90
11824;DHT22;5969;50.780;7.726;2022-07-29T00:23:26;16.50;99.90
11824;DHT22;5969;50.780;7.726;2022-07-29T00:25:53;16.60;99.90
11824;DHT22;5969;50.780;7.726;2022-07-29T00:28:20;16.60;99.90
11824;DHT22;5969;50.780;7.726;2022-07-29T00:30:47;16.60;99.90
11824;DHT22;5969;50.780;7.726;2022-07-29T00:33:13;16.60;99.90
11824;DHT22;5969;50.780;7.726;2022-07-29T00:35:40;16.60;99.90
11824;DHT22;5969;50.780;7.726;2022-07-29T00:38:09;16.60;99.90
11824;DHT22;5969;50.780;7.726;2022-07-29T00:40:37;16.60;99.90
11824;DHT22;5969;50.780;7.726;2022-07-29T00:43:04;16.70;99.90
11824;DHT22;5969;50.780;7.726;2022-07-29T00:45:31;16.80;99.90
11824;DHT22;5969;50.780;7.726;2022-07-29T00:47:57;16.80;99.90
11824;DHT22;5969;50.780;7.726;2022-07-29T00:50:24;16.90;99.90
11824;DHT22;5969;50.780;7.726;2022-07-29T00:52:52;17.00;99.90
11824;DHT22;5969;50.780;7.726;2022-07-29T00:55:19;17.10;99.90
11824;DHT22;5969;50.780;7.726;2022-07-29T00:57:47;17.20;99.90
11824;DHT22;5969;50.780;7.726;2022-07-29T01:00:16;17.10;99.90
11824;DHT22;5969;50.780;7.726;2022-07-29T01:02:44;17.10;99.90
11824;DHT22;5969;50.780;7.726;2022-07-29T01:05:12;17.00;99.90
11824;DHT22;5969;50.780;7.726;2022-07-29T01:07:39;17.00;99.90
11824;DHT22;5969;50.780;7.726;2022-07-29T01:10:09;17.00;99.90
11824;DHT22;5969;50.780;7.726;2022-07-29T01:12:37;17.00;99.90
11824;DHT22;5969;50.780;7.726;2022-07-29T01:15:07;16.90;99.90
11824;DHT22;5969;50.780;7.726;2022-07-29T01:17:38;16.90;99.90
11824;DHT22;5969;50.780;7.726;2022-07-29T01:20:10;16.90;99.90
11824;DHT22;5969;50.780;7.726;2022-07-29T01:23:08;16.80;99.90
11824;DHT22;5969;50.780;7.726;2022-07-29T01:25:54;16.80;99.90
11824;DHT22;5969;50.780;7.726;2022-07-29T01:28:38;16.70;99.90
11824;DHT22;5969;50.780;7.726;2022-07-29T01:31:07;16.70;99.90
11824;DHT22;5969;50.780;7.726;2022-07-29T01:33:43;16.60;99.90
11824;DHT22;5969;50.780;7.726;2022-07-29T01:36:21;16.60;99.90
11824;DHT22;5969;50.780;7.726;2022-07-29T01:38:54;16.60;99.90
11824;DHT22;5969;50.780;7.726;2022-07-29T01:41:25;16.50;99.90
11824;DHT22;5969;50.780;7.726;2022-07-29T01:43:57;16.50;99.90
11824;DHT22;5969;50.780;7.726;2022-07-29T01:46:29;16.50;99.90
11824;DHT22;5969;50.780;7.726;2022-07-29T01:49:04;16.60;99.90
11824;DHT22;5969;50.780;7.726;2022-07-29T01:51:35;16.70;99.90
11824;DHT22;5969;50.780;7.726;2022-07-29T01:54:08;16.70;99.90
11824;DHT22;5969;50.780;7.726;2022-07-29T01:56:38;16.70;99.90
11824;DHT22;5969;50.780;7.726;2022-07-29T01:59:08;16.70;99.90
11824;DHT22;5969;50.780;7.726;2022-07-29T02:01:37;16.70;99.90
11824;DHT22;5969;50.780;7.726;2022-07-29T02:04:06;16.90;99.90
11824;DHT22;5969;50.780;7.726;2022-07-29T02:06:37;17.10;99.90
11824;DHT22;5969;50.780;7.726;2022-07-29T02:09:05;17.20;99.90
11824;DHT22;5969;50.780;7.726;2022-07-29T02:11:33;17.20;99.90
11824;DHT22;5969;50.780;7.726;2022-07-29T02:14:01;17.20;99.90
11824;DHT22;5969;50.780;7.726;2022-07-29T02:16:32;17.20;99.90
11824;DHT22;5969;50.780;7.726;2022-07-29T02:19:02;17.20;99.90
11824;DHT22;5969;50.780;7.726;2022-07-29T02:21:30;17.20;99.90
11824;DHT22;5969;50.780;7.726;2022-07-29T02:24:01;17.30;99.90
11824;DHT22;5969;50.780;7.726;2022-07-29T02:26:30;17.30;99.90
11824;DHT22;5969;50.780;7.726;2022-07-29T02:29:08;17.30;99.90
11824;DHT22;5969;50.780;7.726;2022-07-29T02:31:36;17.30;99.90
11824;DHT22;5969;50.780;7.726;2022-07-29T02:34:06;17.30;99.90
11824;DHT22;5969;50.780;7.726;2022-07-29T02:36:34;17.20;99.90
11824;DHT22;5969;50.780;7.726;2022-07-29T02:39:02;17.10;99.90
11824;DHT22;5969;50.780;7.726;2022-07-29T02:41:33;17.00;99.90
11824;DHT22;5969;50.780;7.726;2022-07-29T02:44:05;16.90;99.90
11824;DHT22;5969;50.780;7.726;2022-07-29T02:46:35;16.80;99.90
11824;DHT22;5969;50.780;7.726;2022-07-29T02:49:08;16.70;99.90
11824;DHT22;5969;50.780;7.726;2022-07-29T02:51:41;16.70;99.90
11824;DHT22;5969;50.780;7.726;2022-07-29T02:54:10;16.70;99.90
11824;DHT22;5969;50.780;7.726;2022-07-29T02:56:39;16.70;99.90
11824;DHT22;5969;50.780;7.726;2022-07-29T02:59:10;16.60;99.90
11824;DHT22;5969;50.780;7.726;2022-07-29T03:01:41;16.50;99.90
11824;DHT22;5969;50.780;7.726;2022-07-29T03:04:09;16.40;99.90
11824;DHT22;5969;50.780;7.726;2022-07-29T03:06:38;16.30;99.90
11824;DHT22;5969;50.780;7.726;2022-07-29T03:09:06;16.40;99.90
11824;DHT22;5969;50.780;7.726;2022-07-29T03:11:34;16.50;99.90
11824;DHT22;5969;50.780;7.726;2022-07-29T03:14:01;16.50;99.90
11824;DHT22;5969;50.780;7.726;2022-07-29T03:16:29;16.50;99.90
11824;DHT22;5969;50.780;7.726;2022-07-29T03:18:57;16.60;99.90
11824;DHT22;5969;50.780;7.726;2022-07-29T03:21:25;16.60;99.90
11824;DHT22;5969;50.780;7.726;2022-07-29T03:23:51;16.60;99.90
11824;DHT22;5969;50.780;7.726;2022-07-29T03:26:19;16.60;99.90
11824;DHT22;5969;50.780;7.726;2022-07-29T03:28:46;16.50;99.90
11824;DHT22;5969;50.780;7.726;2022-07-29T03:31:12;16.40;99.90
11824;DHT22;5969;50.780;7.726;2022-07-29T03:33:39;16.30;99.90
11824;DHT22;5969;50.780;7.726;2022-07-29T03:36:07;16.30;99.90
11824;DHT22;5969;50.780;7.726;2022-07-29T03:38:35;16.30;99.90
11824;DHT22;5969;50.780;7.726;2022-07-29T03:41:05;16.20;99.90
11824;DHT22;5969;50.780;7.726;2022-07-29T03:43:37;16.20;99.90
11824;DHT22;5969;50.780;7.726;2022-07-29T03:46:07;16.20;99.90
11824;DHT22;5969;50.780;7.726;2022-07-29T03:48:37;16.20;99.90
11824;DHT22;5969;50.780;7.726;2022-07-29T03:51:06;16.20;99.90
11824;DHT22;5969;50.780;7.726;2022-07-29T03:53:33;16.30;99.90
11824;DHT22;5969;50.780;7.726;2022-07-29T03:56:02;16.30;99.90
11824;DHT22;5969;50.780;7.726;2022-07-29T03:58:30;16.30;99.90
11824;DHT22;5969;50.780;7.726;2022-07-29T04:00:58;16.20;99.90
11824;DHT22;5969;50.780;7.726;2022-07-29T04:03:25;16.10;99.90
11824;DHT22;5969;50.780;7.726;2022-07-29T04:05:59;15.90;99.90
11824;DHT22;5969;50.780;7.726;2022-07-29T04:08:28;15.80;99.90
11824;DHT22;5969;50.780;7.726;2022-07-29T04:10:54;15.70;99.90
11824;DHT22;5969;50.780;7.726;2022-07-29T04:13:21;15.70;99.90
11824;DHT22;5969;50.780;7.726;2022-07-29T04:15:48;15.60;99.90
11824;DHT22;5969;50.780;7.726;2022-07-29T04:18:15;15.60;99.90
11824;DHT22;5969;50.780;7.726;2022-07-29T04:20:42;15.60;99.90
11824;DHT22;5969;50.780;7.726;2022-07-29T04:23:08;15.60;99.90
11824;DHT22;5969;50.780;7.726;2022-07-29T04:25:38;15.60;99.90
11824;DHT22;5969;50.780;7.726;2022-07-29T04:28:06;15.50;99.90
11824;DHT22;5969;50.780;7.726;2022-07-29T04:30:34;15.50;99.90
11824;DHT22;5969;50.780;7.726;2022-07-29T04:33:03;15.50;99.90
11824;DHT22;5969;50.780;7.726;2022-07-29T04:35:33;15.50;99.90
11824;DHT22;5969;50.780;7.726;2022-07-29T04:37:59;15.40;99.90
11824;DHT22;5969;50.780;7.726;2022-07-29T04:40:27;15.40;99.90
11824;DHT22;5969;50.780;7.726;2022-07-29T04:42:55;15.40;99.90
11824;DHT22;5969;50.780;7.726;2022-07-29T04:45:22;15.40;99.90
11824;DHT22;5969;50.780;7.726;2022-07-29T04:47:49;15.50;99.90
11824;DHT22;5969;50.780;7.726;2022-07-29T04:50:16;15.60;99.90
11824;DHT22;5969;50.780;7.726;2022-07-29T04:52:43;15.70;99.90
11824;DHT22;5969;50.780;7.726;2022-07-29T04:55:09;15.80;99.90
11824;DHT22;5969;50.780;7.726;2022-07-29T04:57:36;15.90;99.90
11824;DHT22;5969;50.780;7.726;2022-07-29T05:00:06;16.00;99.90
11824;DHT22;5969;50.780;7.726;2022-07-29T05:02:33;16.10;99.90
11824;DHT22;5969;50.780;7.726;2022-07-29T05:05:00;16.10;99.90
11824;DHT22;5969;50.780;7.726;2022-07-29T05:07:26;16.20;99.90
11824;DHT22;5969;50.780;7.726;2022-07-29T05:09:53;16.30;99.90
11824;DHT22;5969;50.780;7.726;2022-07-29T05:12:22;16.40;99.90
11824;DHT22;5969;50.780;7.726;2022-07-29T05:14:49;16.40;99.90
11824;DHT22;5969;50.780;7.726;2022-07-29T05:17:17;16.50;99.90
11824;DHT22;5969;50.780;7.726;2022-07-29T05:19:44;16.30;99.90
11824;DHT22;5969;50.780;7.726;2022-07-29T05:22:10;16.20;99.90
11824;DHT22;5969;50.780;7.726;2022-07-29T05:24:37;16.10;99.90
11824;DHT22;5969;50.780;7.726;2022-07-29T05:27:04;16.00;99.90
11824;DHT22;5969;50.780;7.726;2022-07-29T05:29:31;16.20;99.90
11824;DHT22;5969;50.780;7.726;2022-07-29T05:31:57;16.40;99.90
11824;DHT22;5969;50.780;7.726;2022-07-29T05:34:26;16.70;99.90
11824;DHT22;5969;50.780;7.726;2022-07-29T05:36:53;16.90;99.90
11824;DHT22;5969;50.780;7.726;2022-07-29T05:39:20;17.00;99.90
11824;DHT22;5969;50.780;7.726;2022-07-29T05:41:47;17.00;99.90
11824;DHT22;5969;50.780;7.726;2022-07-29T05:44:14;17.10;99.90
11824;DHT22;5969;50.780;7.726;2022-07-29T05:46:41;17.10;99.90
11824;DHT22;5969;50.780;7.726;2022-07-29T05:49:08;17.10;99.90
11824;DHT22;5969;50.780;7.726;2022-07-29T05:51:36;17.20;99.90
11824;DHT22;5969;50.780;7.726;2022-07-29T05:54:03;17.30;99.90
11824;DHT22;5969;50.780;7.726;2022-07-29T05:56:30;17.40;99.90
11824;DHT22;5969;50.780;7.726;2022-07-29T05:58:57;17.50;99.90
11824;DHT22;5969;50.780;7.726;2022-07-29T06:01:24;17.50;99.90
11824;DHT22;5969;50.780;7.726;2022-07-29T06:03:51;17.60;99.90
11824;DHT22;5969;50.780;7.726;2022-07-29T06:06:22;17.70;99.90
11824;DHT22;5969;50.780;7.726;2022-07-29T06:08:50;17.70;99.90
11824;DHT22;5969;50.780;7.726;2022-07-29T06:11:17;17.80;99.90
11824;DHT22;5969;50.780;7.726;2022-07-29T06:13:44;17.90;99.90
11824;DHT22;5969;50.780;7.726;2022-07-29T06:16:11;18.00;99.90
11824;DHT22;5969;50.780;7.726;2022-07-29T06:18:38;18.00;99.90
11824;DHT22;5969;50.780;7.726;2022-07-29T06:21:08;18.10;99.90
11824;DHT22;5969;50.780;7.726;2022-07-29T06:23:35;18.10;99.90
11824;DHT22;5969;50.780;7.726;2022-07-29T06:26:04;18.10;99.90
11824;DHT22;5969;50.780;7.726;2022-07-29T06:28:32;18.10;99.90
11824;DHT22;5969;50.780;7.726;2022-07-29T06:30:59;18.10;99.90
11824;DHT22;5969;50.780;7.726;2022-07-29T06:33:26;18.20;99.90
11824;DHT22;5969;50.780;7.726;2022-07-29T06:35:53;18.30;99.90
11824;DHT22;5969;50.780;7.726;2022-07-29T06:38:20;18.30;99.90
11824;DHT22;5969;50.780;7.726;2022-07-29T06:40:46;18.50;99.90
11824;DHT22;5969;50.780;7.726;2022-07-29T06:43:32;18.60;99.90
11824;DHT22;5969;50.780;7.726;2022-07-29T06:46:02;18.80;99.90
11824;DHT22;5969;50.780;7.726;2022-07-29T06:48:29;18.70;99.90
11824;DHT22;5969;50.780;7.726;2022-07-29T06:50:56;18.60;99.90
11824;DHT22;5969;50.780;7.726;2022-07-29T06:53:23;18.60;99.90
11824;DHT22;5969;50.780;7.726;2022-07-29T06:55:50;18.60;99.90
11824;DHT22;5969;50.780;7.726;2022-07-29T06:58:17;18.60;99.90
11824;DHT22;5969;50.780;7.726;2022-07-29T07:00:47;18.60;99.90
11824;DHT22;5969;50.780;7.726;2022-07-29T07:03:14;18.60;99.90
11824;DHT22;5969;50.780;7.726;2022-07-29T07:05:41;18.60;99.90
11824;DHT22;5969;50.780;7.726;2022-07-29T07:08:09;18.80;99.90
11824;DHT22;5969;50.780;7.726;2022-07-29T07:10:36;18.90;99.90
11824;DHT22;5969;50.780;7.726;2022-07-29T07:13:04;19.10;99.90
11824;DHT22;5969;50.780;7.726;2022-07-29T07:15:31;19.30;99.90
11824;DHT22;5969;50.780;7.726;2022-07-29T07:18:00;19.20;99.90
11824;DHT22;5969;50.780;7.726;2022-07-29T07:20:27;19.30;99.90
11824;DHT22;5969;50.780;7.726;2022-07-29T07:22:53;19.30;99.90
11824;DHT22;5969;50.780;7.726;2022-07-29T07:25:20;19.30;99.90
11824;DHT22;5969;50.780;7.726;2022-07-29T07:27:47;19.40;99.90
11824;DHT22;5969;50.780;7.726;2022-07-29T07:30:14;19.40;99.90
11824;DHT22;5969;50.780;7.726;2022-07-29T07:32:41;19.60;99.90
11824;DHT22;5969;50.780;7.726;2022-07-29T07:35:10;19.70;99.90
11824;DHT22;5969;50.780;7.726;2022-07-29T07:37:38;19.90;99.90
11824;DHT22;5969;50.780;7.726;2022-07-29T07:40:07;20.00;99.90
11824;DHT22;5969;50.780;7.726;2022-07-29T07:42:34;20.10;99.90
11824;DHT22;5969;50.780;7.726;2022-07-29T07:45:02;20.30;99.90
11824;DHT22;5969;50.780;7.726;2022-07-29T07:47:29;20.60;99.90
11824;DHT22;5969;50.780;7.726;2022-07-29T07:49:55;21.00;99.90
11824;DHT22;5969;50.780;7.726;2022-07-29T07:52:24;21.20;99.90
11824;DHT22;5969;50.780;7.726;2022-07-29T07:54:51;21.40;99.90
11824;DHT22;5969;50.780;7.726;2022-07-29T07:57:18;21.50;99.90
11824;DHT22;5969;50.780;7.726;2022-07-29T07:59:45;21.70;99.90
11824;DHT22;5969;50.780;7.726;2022-07-29T08:02:12;21.70;99.90
11824;DHT22;5969;50.780;7.726;2022-07-29T08:04:39;21.70;99.90
11824;DHT22;5969;50.780;7.726;2022-07-29T08:07:07;21.90;99.90
11824;DHT22;5969;50.780;7.726;2022-07-29T08:09:36;22.00;99.90
11824;DHT22;5969;50.780;7.726;2022-07-29T08:12:03;22.10;99.90
11824;DHT22;5969;50.780;7.726;2022-07-29T08:14:31;21.80;99.50
11824;DHT22;5969;50.780;7.726;2022-07-29T08:16:59;21.90;99.90
11824;DHT22;5969;50.780;7.726;2022-07-29T08:19:26;21.90;99.90
11824;DHT22;5969;50.780;7.726;2022-07-29T08:21:53;22.00;99.90
11824;DHT22;5969;50.780;7.726;2022-07-29T08:24:21;21.80;99.80
11824;DHT22;5969;50.780;7.726;2022-07-29T08:27:07;21.90;99.70
11824;DHT22;5969;50.780;7.726;2022-07-29T08:29:34;22.00;99.90
11824;DHT22;5969;50.780;7.726;2022-07-29T08:32:01;22.30;99.80
11824;DHT22;5969;50.780;7.726;2022-07-29T08:34:28;22.60;99.00
11824;DHT22;5969;50.780;7.726;2022-07-29T08:36:55;22.60;99.30
11824;DHT22;5969;50.780;7.726;2022-07-29T08:39:23;23.00;99.60
11824;DHT22;5969;50.780;7.726;2022-07-29T08:41:50;23.30;99.30
11824;DHT22;5969;50.780;7.726;2022-07-29T08:44:18;23.30;98.00
11824;DHT22;5969;50.780;7.726;2022-07-29T08:46:48;23.20;98.00
11824;DHT22;5969;50.780;7.726;2022-07-29T08:49:15;23.10;98.40
11824;DHT22;5969;50.780;7.726;2022-07-29T08:51:43;23.30;98.30
11824;DHT22;5969;50.780;7.726;2022-07-29T08:54:11;23.40;98.30
11824;DHT22;5969;50.780;7.726;2022-07-29T08:56:43;23.30;98.30
11824;DHT22;5969;50.780;7.726;2022-07-29T08:59:10;23.30;97.80
11824;DHT22;5969;50.780;7.726;2022-07-29T09:01:39;23.40;98.10
11824;DHT22;5969;50.780;7.726;2022-07-29T09:04:11;23.70;98.50
11824;DHT22;5969;50.780;7.726;2022-07-29T09:06:43;23.90;98.60
11824;DHT22;5969;50.780;7.726;2022-07-29T09:09:10;23.90;98.30
11824;DHT22;5969;50.780;7.726;2022-07-29T09:11:37;23.90;97.70
11824;DHT22;5969;50.780;7.726;2022-07-29T09:14:04;23.90;98.40
11824;DHT22;5969;50.780;7.726;2022-07-29T09:16:50;23.80;97.90
11824;DHT22;5969;50.780;7.726;2022-07-29T09:19:22;23.70;97.90
11824;DHT22;5969;50.780;7.726;2022-07-29T09:21:49;23.50;97.90
11824;DHT22;5969;50.780;7.726;2022-07-29T09:24:26;23.70;97.80
11824;DHT22;5969;50.780;7.726;2022-07-29T09:26:54;23.80;98.30
11824;DHT22;5969;50.780;7.726;2022-07-29T09:29:24;23.80;98.00
11824;DHT22;5969;50.780;7.726;2022-07-29T09:31:55;23.80;98.20
11824;DHT22;5969;50.780;7.726;2022-07-29T09:34:23;24.00;97.80
11824;DHT22;5969;50.780;7.726;2022-07-29T09:36:51;24.00;99.30
11824;DHT22;5969;50.780;7.726;2022-07-29T09:39:29;24.10;98.30
11824;DHT22;5969;50.780;7.726;2022-07-29T09:41:57;24.40;98.40
11824;DHT22;5969;50.780;7.726;2022-07-29T09:44:25;24.50;99.10
11824;DHT22;5969;50.780;7.726;2022-07-29T09:46:58;24.70;98.20
11824;DHT22;5969;50.780;7.726;2022-07-29T09:49:31;24.70;97.20
11824;DHT22;5969;50.780;7.726;2022-07-29T09:52:00;24.60;97.40
11824;DHT22;5969;50.780;7.726;2022-07-29T09:54:27;24.50;97.50
11824;DHT22;5969;50.780;7.726;2022-07-29T09:56:55;24.90;97.10
11824;DHT22;5969;50.780;7.726;2022-07-29T09:59:22;25.10;97.20
11824;DHT22;5969;50.780;7.726;2022-07-29T10:01:52;25.30;97.40
11824;DHT22;5969;50.780;7.726;2022-07-29T10:04:20;25.60;96.60
11824;DHT22;5969;50.780;7.726;2022-07-29T10:06:58;25.70;96.60
11824;DHT22;5969;50.780;7.726;2022-07-29T10:09:26;25.70;96.40
11824;DHT22;5969;50.780;7.726;2022-07-29T10:12:09;25.70;96.30
11824;DHT22;5969;50.780;7.726;2022-07-29T10:14:39;26.00;97.10
11824;DHT22;5969;50.780;7.726;2022-07-29T10:17:08;26.00;96.20
11824;DHT22;5969;50.780;7.726;2022-07-29T10:19:37;26.30;96.60
11824;DHT22;5969;50.780;7.726;2022-07-29T10:22:07;26.60;96.20
11824;DHT22;5969;50.780;7.726;2022-07-29T10:24:36;26.10;96.10
11824;DHT22;5969;50.780;7.726;2022-07-29T10:27:05;25.90;96.30
11824;DHT22;5969;50.780;7.726;2022-07-29T10:29:33;26.00;96.40
11824;DHT22;5969;50.780;7.726;2022-07-29T10:32:15;26.00;96.40
11824;DHT22;5969;50.780;7.726;2022-07-29T10:35:06;26.40;96.40
11824;DHT22;5969;50.780;7.726;2022-07-29T10:37:45;26.80;95.50
11824;DHT22;5969;50.780;7.726;2022-07-29T10:40:17;27.20;95.50
11824;DHT22;5969;50.780;7.726;2022-07-29T10:43:14;27.40;95.00
11824;DHT22;5969;50.780;7.726;2022-07-29T10:45:44;27.40;96.20
11824;DHT22;5969;50.780;7.726;2022-07-29T10:48:11;27.90;95.40
11824;DHT22;5969;50.780;7.726;2022-07-29T10:50:56;27.90;95.80
11824;DHT22;5969;50.780;7.726;2022-07-29T10:53:25;28.30;95.50
11824;DHT22;5969;50.780;7.726;2022-07-29T10:56:24;28.40;93.80
11824;DHT22;5969;50.780;7.726;2022-07-29T10:59:24;27.70;94.90
11824;DHT22;5969;50.780;7.726;2022-07-29T11:01:52;27.60;94.20
11824;DHT22;5969;50.780;7.726;2022-07-29T11:07:26;27.10;94.90
11824;DHT22;5969;50.780;7.726;2022-07-29T11:10:22;27.10;94.90
11824;DHT22;5969;50.780;7.726;2022-07-29T11:12:50;27.10;94.40
11824;DHT22;5969;50.780;7.726;2022-07-29T11:15:19;26.90;95.20
11824;DHT22;5969;50.780;7.726;2022-07-29T11:18:07;26.80;94.70
11824;DHT22;5969;50.780;7.726;2022-07-29T11:20:36;26.80;94.70
11824;DHT22;5969;50.780;7.726;2022-07-29T11:23:23;26.70;94.70
11824;DHT22;5969;50.780;7.726;2022-07-29T11:26:13;26.80;94.30
11824;DHT22;5969;50.780;7.726;2022-07-29T11:28:50;26.80;94.30
11824;DHT22;5969;50.780;7.726;2022-07-29T11:31:20;26.80;95.00
11824;DHT22;5969;50.780;7.726;2022-07-29T11:34:16;26.90;94.70
11824;DHT22;5969;50.780;7.726;2022-07-29T11:37:17;27.10;94.50
11824;DHT22;5969;50.780;7.726;2022-07-29T11:39:47;27.30;94.20
11824;DHT22;5969;50.780;7.726;2022-07-29T11:42:44;27.20;94.20
11824;DHT22;5969;50.780;7.726;2022-07-29T11:45:22;26.90;93.80
11824;DHT22;5969;50.780;7.726;2022-07-29T11:47:54;26.50;94.90
11824;DHT22;5969;50.780;7.726;2022-07-29T11:50:29;26.80;94.20
11824;DHT22;5969;50.780;7.726;2022-07-29T11:52:56;26.90;94.30
11824;DHT22;5969;50.780;7.726;2022-07-29T11:55:26;27.00;94.30
11824;DHT22;5969;50.780;7.726;2022-07-29T11:57:54;27.20;94.50
11824;DHT22;5969;50.780;7.726;2022-07-29T12:00:24;27.80;94.60
11824;DHT22;5969;50.780;7.726;2022-07-29T12:02:53;27.90;93.90
11824;DHT22;5969;50.780;7.726;2022-07-29T12:05:21;27.80;94.00
11824;DHT22;5969;50.780;7.726;2022-07-29T12:07:48;28.00;93.00
11824;DHT22;5969;50.780;7.726;2022-07-29T12:10:15;27.70;93.80
11824;DHT22;5969;50.780;7.726;2022-07-29T12:12:51;27.90;94.50
11824;DHT22;5969;50.780;7.726;2022-07-29T12:15:19;28.20;94.00
11824;DHT22;5969;50.780;7.726;2022-07-29T12:17:47;28.40;93.40
11824;DHT22;5969;50.780;7.726;2022-07-29T12:20:22;28.50;93.30
11824;DHT22;5969;50.780;7.726;2022-07-29T12:22:49;28.80;92.90
11824;DHT22;5969;50.780;7.726;2022-07-29T12:25:16;28.80;93.50
11824;DHT22;5969;50.780;7.726;2022-07-29T12:27:45;28.80;92.70
11824;DHT22;5969;50.780;7.726;2022-07-29T12:30:14;28.30;93.00
11824;DHT22;5969;50.780;7.726;2022-07-29T12:32:43;28.20;93.10
11824;DHT22;5969;50.780;7.726;2022-07-29T12:35:12;28.50;93.80
11824;DHT22;5969;50.780;7.726;2022-07-29T12:37:41;28.60;93.20
11824;DHT22;5969;50.780;7.726;2022-07-29T12:40:10;28.70;93.70
11824;DHT22;5969;50.780;7.726;2022-07-29T12:42:37;28.80;92.80
11824;DHT22;5969;50.780;7.726;2022-07-29T12:45:06;28.40;93.20
11824;DHT22;5969;50.780;7.726;2022-07-29T12:47:33;28.40;93.20
11824;DHT22;5969;50.780;7.726;2022-07-29T12:50:17;28.60;93.20
11824;DHT22;5969;50.780;7.726;2022-07-29T12:52:44;28.50;92.90
11824;DHT22;5969;50.780;7.726;2022-07-29T12:55:12;28.50;93.30
11824;DHT22;5969;50.780;7.726;2022-07-29T12:57:45;28.70;93.00
11824;DHT22;5969;50.780;7.726;2022-07-29T13:00:15;28.80;92.90
11824;DHT22;5969;50.780;7.726;2022-07-29T13:02:43;28.60;93.20
11824;DHT22;5969;50.780;7.726;2022-07-29T13:05:11;28.70;92.70
11824;DHT22;5969;50.780;7.726;2022-07-29T13:07:38;28.60;92.60
11824;DHT22;5969;50.780;7.726;2022-07-29T13:10:13;28.20;93.10
11824;DHT22;5969;50.780;7.726;2022-07-29T13:13:02;28.80;93.90
11824;DHT22;5969;50.780;7.726;2022-07-29T13:15:31;29.20;92.80
11824;DHT22;5969;50.780;7.726;2022-07-29T13:17:58;29.20;93.00
11824;DHT22;5969;50.780;7.726;2022-07-29T13:20:27;29.20;92.80
11824;DHT22;5969;50.780;7.726;2022-07-29T13:22:55;29.30;92.60
11824;DHT22;5969;50.780;7.726;2022-07-29T13:25:26;29.30;92.60
11824;DHT22;5969;50.780;7.726;2022-07-29T13:27:53;29.40;93.10
11824;DHT22;5969;50.780;7.726;2022-07-29T13:30:21;29.90;92.40
11824;DHT22;5969;50.780;7.726;2022-07-29T13:32:50;30.20;93.30
11824;DHT22;5969;50.780;7.726;2022-07-29T13:35:18;30.90;91.90
11824;DHT22;5969;50.780;7.726;2022-07-29T13:37:46;31.90;91.80
11824;DHT22;5969;50.780;7.726;2022-07-29T13:40:13;32.70;91.00
11824;DHT22;5969;50.780;7.726;2022-07-29T13:42:40;33.00;90.50
11824;DHT22;5969;50.780;7.726;2022-07-29T13:45:08;32.30;90.50
11824;DHT22;5969;50.780;7.726;2022-07-29T13:47:36;32.20;90.80
11824;DHT22;5969;50.780;7.726;2022-07-29T13:50:07;32.50;90.80
11824;DHT22;5969;50.780;7.726;2022-07-29T13:52:35;33.10;89.40
11824;DHT22;5969;50.780;7.726;2022-07-29T13:55:04;32.80;90.40
11824;DHT22;5969;50.780;7.726;2022-07-29T13:57:31;32.90;89.80
11824;DHT22;5969;50.780;7.726;2022-07-29T13:59:57;32.90;90.00
11824;DHT22;5969;50.780;7.726;2022-07-29T14:02:24;34.10;89.10
11824;DHT22;5969;50.780;7.726;2022-07-29T14:04:51;33.70;88.50
11824;DHT22;5969;50.780;7.726;2022-07-29T14:07:19;33.10;89.50
11824;DHT22;5969;50.780;7.726;2022-07-29T14:09:46;32.60;90.20
11824;DHT22;5969;50.780;7.726;2022-07-29T14:12:13;31.80;90.60
11824;DHT22;5969;50.780;7.726;2022-07-29T14:14:39;32.10;91.00
11824;DHT22;5969;50.780;7.726;2022-07-29T14:17:07;31.80;90.90
11824;DHT22;5969;50.780;7.726;2022-07-29T14:19:34;30.90;91.70
11824;DHT22;5969;50.780;7.726;2022-07-29T14:22:03;30.70;92.10
11824;DHT22;5969;50.780;7.726;2022-07-29T14:24:31;31.00;92.40
11824;DHT22;5969;50.780;7.726;2022-07-29T14:26:58;30.90;92.40
11824;DHT22;5969;50.780;7.726;2022-07-29T14:29:25;31.10;92.20
11824;DHT22;5969;50.780;7.726;2022-07-29T14:31:52;31.40;92.40
11824;DHT22;5969;50.780;7.726;2022-07-29T14:34:19;31.70;91.80
11824;DHT22;5969;50.780;7.726;2022-07-29T14:36:45;32.10;91.40
11824;DHT22;5969;50.780;7.726;2022-07-29T14:39:12;31.50;91.50
11824;DHT22;5969;50.780;7.726;2022-07-29T14:41:42;31.40;92.00
11824;DHT22;5969;50.780;7.726;2022-07-29T14:44:09;31.50;92.50
11824;DHT22;5969;50.780;7.726;2022-07-29T14:46:36;30.80;92.40
11824;DHT22;5969;50.780;7.726;2022-07-29T14:49:03;30.70;92.70
11824;DHT22;5969;50.780;7.726;2022-07-29T14:51:31;31.20;92.00
11824;DHT22;5969;50.780;7.726;2022-07-29T14:53:58;30.10;92.20
11824;DHT22;5969;50.780;7.726;2022-07-29T14:56:24;29.30;93.10
11824;DHT22;5969;50.780;7.726;2022-07-29T14:58:53;29.10;93.20
11824;DHT22;5969;50.780;7.726;2022-07-29T15:01:20;28.90;93.80
11824;DHT22;5969;50.780;7.726;2022-07-29T15:03:47;29.40;93.30
11824;DHT22;5969;50.780;7.726;2022-07-29T15:06:14;30.10;93.00
11824;DHT22;5969;50.780;7.726;2022-07-29T15:08:41;30.50;92.80
11824;DHT22;5969;50.780;7.726;2022-07-29T15:11:07;29.80;92.90
11824;DHT22;5969;50.780;7.726;2022-07-29T15:13:34;29.70;93.20
11824;DHT22;5969;50.780;7.726;2022-07-29T15:16:04;29.30;93.60
11824;DHT22;5969;50.780;7.726;2022-07-29T15:18:31;29.30;93.50
11824;DHT22;5969;50.780;7.726;2022-07-29T15:20:58;29.40;93.90
11824;DHT22;5969;50.780;7.726;2022-07-29T15:23:25;29.80;93.30
11824;DHT22;5969;50.780;7.726;2022-07-29T15:25:52;29.90;93.20
11824;DHT22;5969;50.780;7.726;2022-07-29T15:28:19;30.30;93.10
11824;DHT22;5969;50.780;7.726;2022-07-29T15:30:46;31.30;92.90
11824;DHT22;5969;50.780;7.726;2022-07-29T15:33:14;32.50;92.80
11824;DHT22;5969;50.780;7.726;2022-07-29T15:35:41;34.00;90.80
11824;DHT22;5969;50.780;7.726;2022-07-29T15:38:08;34.60;91.00
11824;DHT22;5969;50.780;7.726;2022-07-29T15:40:36;35.70;89.30
11824;DHT22;5969;50.780;7.726;2022-07-29T15:43:04;35.10;89.80
11824;DHT22;5969;50.780;7.726;2022-07-29T15:45:35;34.40;90.10
11824;DHT22;5969;50.780;7.726;2022-07-29T15:48:04;34.60;90.20
11824;DHT22;5969;50.780;7.726;2022-07-29T15:50:33;34.60;89.20
11824;DHT22;5969;50.780;7.726;2022-07-29T15:53:00;34.20;89.60
11824;DHT22;5969;50.780;7.726;2022-07-29T15:55:26;33.20;90.00
11824;DHT22;5969;50.780;7.726;2022-07-29T15:57:53;31.80;90.60
11824;DHT22;5969;50.780;7.726;2022-07-29T16:00:20;31.70;90.60
11824;DHT22;5969;50.780;7.726;2022-07-29T16:02:48;32.40;90.50